sensor_id;sensor_type;location;lat;lon;timestamp;pressure;altitude;pressure_sealevel;temperature;humidity
31044;BME280;17710;52.520;13.352;2023-08-31T00:00:12;100194.34;;;21.54;59.34
31044;BME280;17710;52.520;13.352;2023-08-31T00:02:39;100194.91;;;21.47;59.59
31044;BME280;17710;52.520;13.352;2023-08-31T00:05:06;100202.16;;;21.57;59.30
31044;BME280;17710;52.520;13.352;2023-08-31T00:07:32;100203.44;;;21.62;59.13
31044;BME280;17710;52.520;13.352;2023-08-31T00:09:59;100201.56;;;21.53;59.35
31044;BME280;17710;52.520;13.352;2023-08-31T00:12:31;100211.56;;;21.32;59.87
31044;BME280;17710;52.520;13.352;2023-08-31T00:14:57;100206.50;;;21.48;59.60
31044;BME280;17710;52.520;13.352;2023-08-31T00:17:25;100218.41;;;21.45;59.56
31044;BME280;17710;52.520;13.352;2023-08-31T00:19:52;100209.47;;;21.45;59.90
31044;BME280;17710;52.520;13.352;2023-08-31T00:22:19;100206.19;;;21.32;60.13
31044;BME280;17710;52.520;13.352;2023-08-31T00:24:46;100202.03;;;21.58;59.53
31044;BME280;17710;52.520;13.352;2023-08-31T00:27:12;100191.81;;;21.52;59.90
31044;BME280;17710;52.520;13.352;2023-08-31T00:29:40;100193.53;;;21.63;59.63
31044;BME280;17710;52.520;13.352;2023-08-31T00:32:08;100189.38;;;21.39;60.15
31044;BME280;17710;52.520;13.352;2023-08-31T00:34:36;100181.63;;;21.56;59.72
31044;BME280;17710;52.520;13.352;2023-08-31T00:37:02;100187.81;;;21.37;60.79
31044;BME280;17710;52.520;13.352;2023-08-31T00:39:30;100183.84;;;21.41;60.45
31044;BME280;17710;52.520;13.352;2023-08-31T00:41:58;100197.88;;;21.44;60.31
31044;BME280;17710;52.520;13.352;2023-08-31T00:44:25;100205.03;;;21.25;61.10
31044;BME280;17710;52.520;13.352;2023-08-31T00:46:52;100202.69;;;20.90;62.54
31044;BME280;17710;52.520;13.352;2023-08-31T00:49:19;100202.44;;;20.93;62.74
31044;BME280;17710;52.520;13.352;2023-08-31T00:51:47;100188.81;;;20.85;63.50
31044;BME280;17710;52.520;13.352;2023-08-31T00:54:16;100186.47;;;21.01;62.68
31044;BME280;17710;52.520;13.352;2023-08-31T00:56:43;100181.13;;;21.01;63.12
31044;BME280;17710;52.520;13.352;2023-08-31T00:59:10;100183.72;;;21.12;62.56
31044;BME280;17710;52.520;13.352;2023-08-31T01:01:38;100196.78;;;21.17;62.74
31044;BME280;17710;52.520;13.352;2023-08-31T01:04:16;100199.66;;;20.74;64.32
31044;BME280;17710;52.520;13.352;2023-08-31T01:06:54;100198.31;;;20.68;65.18
31044;BME280;17710;52.520;13.352;2023-08-31T01:09:29;100198.25;;;20.38;66.54
31044;BME280;17710;52.520;13.352;2023-08-31T01:12:01;100205.53;;;20.47;67.04
31044;BME280;17710;52.520;13.352;2023-08-31T01:14:38;100213.31;;;20.18;69.10
31044;BME280;17710;52.520;13.352;2023-08-31T01:17:09;100214.47;;;20.36;68.55
31044;BME280;17710;52.520;13.352;2023-08-31T01:19:47;100205.59;;;20.36;69.20
31044;BME280;17710;52.520;13.352;2023-08-31T01:22:22;100210.44;;;20.42;68.81
31044;BME280;17710;52.520;13.352;2023-08-31T01:24:52;100224.50;;;20.34;68.82
31044;BME280;17710;52.520;13.352;2023-08-31T01:27:20;100219.56;;;19.75;71.38
31044;BME280;17710;52.520;13.352;2023-08-31T01:29:46;100220.28;;;19.77;71.57
31044;BME280;17710;52.520;13.352;2023-08-31T01:32:13;100223.53;;;19.92;71.17
31044;BME280;17710;52.520;13.352;2023-08-31T01:34:39;100228.44;;;19.76;70.53
31044;BME280;17710;52.520;13.352;2023-08-31T01:37:10;100233.25;;;19.61;71.55
31044;BME280;17710;52.520;13.352;2023-08-31T01:39:41;100228.72;;;19.50;71.26
31044;BME280;17710;52.520;13.352;2023-08-31T01:42:13;100237.13;;;19.68;71.10
31044;BME280;17710;52.520;13.352;2023-08-31T01:44:45;100229.06;;;20.11;68.83
31044;BME280;17710;52.520;13.352;2023-08-31T01:47:15;100231.25;;;20.17;67.63
31044;BME280;17710;52.520;13.352;2023-08-31T01:49:42;100234.03;;;20.16;67.75
31044;BME280;17710;52.520;13.352;2023-08-31T01:52:09;100245.22;;;19.89;68.69
31044;BME280;17710;52.520;13.352;2023-08-31T01:54:35;100236.56;;;19.97;68.86
31044;BME280;17710;52.520;13.352;2023-08-31T01:57:03;100229.53;;;20.16;68.94
31044;BME280;17710;52.520;13.352;2023-08-31T01:59:32;100224.91;;;20.50;67.27
31044;BME280;17710;52.520;13.352;2023-08-31T02:01:59;100240.34;;;20.37;67.66
31044;BME280;17710;52.520;13.352;2023-08-31T02:04:25;100253.88;;;20.36;68.15
31044;BME280;17710;52.520;13.352;2023-08-31T02:06:52;100256.34;;;20.27;67.87
31044;BME280;17710;52.520;13.352;2023-08-31T02:09:19;100260.28;;;20.12;68.66
31044;BME280;17710;52.520;13.352;2023-08-31T02:11:46;100263.75;;;19.92;69.40
31044;BME280;17710;52.520;13.352;2023-08-31T02:14:13;100263.94;;;19.68;69.67
31044;BME280;17710;52.520;13.352;2023-08-31T02:16:41;100272.06;;;19.22;70.31
31044;BME280;17710;52.520;13.352;2023-08-31T02:19:10;100273.38;;;19.17;70.79
31044;BME280;17710;52.520;13.352;2023-08-31T02:21:37;100268.03;;;19.39;69.72
31044;BME280;17710;52.520;13.352;2023-08-31T02:24:04;100274.78;;;19.56;69.83
31044;BME280;17710;52.520;13.352;2023-08-31T02:26:31;100285.94;;;19.27;70.65
31044;BME280;17710;52.520;13.352;2023-08-31T02:28:57;100267.69;;;19.32;70.34
31044;BME280;17710;52.520;13.352;2023-08-31T02:31:23;100264.78;;;19.46;69.54
31044;BME280;17710;52.520;13.352;2023-08-31T02:33:51;100261.84;;;19.27;68.70
31044;BME280;17710;52.520;13.352;2023-08-31T02:36:18;100272.06;;;19.33;69.26
31044;BME280;17710;52.520;13.352;2023-08-31T02:38:45;100271.34;;;19.42;68.95
31044;BME280;17710;52.520;13.352;2023-08-31T02:41:11;100267.09;;;19.73;68.35
31044;BME280;17710;52.520;13.352;2023-08-31T02:43:38;100275.25;;;19.72;68.56
31044;BME280;17710;52.520;13.352;2023-08-31T02:46:05;100279.88;;;19.59;68.35
31044;BME280;17710;52.520;13.352;2023-08-31T02:48:32;100284.75;;;19.65;68.07
31044;BME280;17710;52.520;13.352;2023-08-31T02:51:00;100286.69;;;19.29;69.34
31044;BME280;17710;52.520;13.352;2023-08-31T02:53:28;100282.66;;;19.35;69.95
31044;BME280;17710;52.520;13.352;2023-08-31T02:55:55;100284.25;;;19.26;70.33
31044;BME280;17710;52.520;13.352;2023-08-31T02:58:21;100290.44;;;19.27;69.55
31044;BME280;17710;52.520;13.352;2023-08-31T03:00:48;100282.47;;;19.49;68.76
31044;BME280;17710;52.520;13.352;2023-08-31T03:03:15;100279.28;;;19.66;68.51
31044;BME280;17710;52.520;13.352;2023-08-31T03:05:41;100280.38;;;19.53;67.98
31044;BME280;17710;52.520;13.352;2023-08-31T03:08:09;100279.50;;;19.63;67.42
31044;BME280;17710;52.520;13.352;2023-08-31T03:10:36;100286.22;;;19.58;67.21
31044;BME280;17710;52.520;13.352;2023-08-31T03:13:03;100294.03;;;19.61;67.68
31044;BME280;17710;52.520;13.352;2023-08-31T03:15:32;100294.59;;;19.42;67.82
31044;BME280;17710;52.520;13.352;2023-08-31T03:17:59;100292.19;;;19.50;68.28
31044;BME280;17710;52.520;13.352;2023-08-31T03:20:25;100292.44;;;19.47;68.30
31044;BME280;17710;52.520;13.352;2023-08-31T03:22:51;100298.38;;;19.39;67.58
31044;BME280;17710;52.520;13.352;2023-08-31T03:25:19;100306.63;;;19.25;68.27
31044;BME280;17710;52.520;13.352;2023-08-31T03:27:45;100304.69;;;19.16;68.09
31044;BME280;17710;52.520;13.352;2023-08-31T03:30:13;100303.50;;;19.42;67.89
31044;BME280;17710;52.520;13.352;2023-08-31T03:32:39;100305.91;;;19.45;68.01
31044;BME280;17710;52.520;13.352;2023-08-31T03:35:06;100310.91;;;19.28;68.17
31044;BME280;17710;52.520;13.352;2023-08-31T03:37:33;100311.53;;;19.42;68.32
31044;BME280;17710;52.520;13.352;2023-08-31T03:39:59;100313.88;;;19.47;67.89
31044;BME280;17710;52.520;13.352;2023-08-31T03:42:27;100311.72;;;19.17;68.78
31044;BME280;17710;52.520;13.352;2023-08-31T03:44:53;100306.53;;;19.16;69.08
31044;BME280;17710;52.520;13.352;2023-08-31T03:47:20;100313.69;;;19.26;69.12
31044;BME280;17710;52.520;13.352;2023-08-31T03:49:46;100313.00;;;19.35;69.22
31044;BME280;17710;52.520;13.352;2023-08-31T03:52:12;100309.78;;;18.97;70.33
31044;BME280;17710;52.520;13.352;2023-08-31T03:54:39;100310.47;;;18.99;70.66
31044;BME280;17710;52.520;13.352;2023-08-31T03:57:05;100320.09;;;18.90;71.71
31044;BME280;17710;52.520;13.352;2023-08-31T03:59:33;100314.28;;;18.96;71.55
31044;BME280;17710;52.520;13.352;2023-08-31T04:01:59;100322.44;;;19.17;70.89
31044;BME280;17710;52.520;13.352;2023-08-31T04:04:26;100333.69;;;19.22;71.15
31044;BME280;17710;52.520;13.352;2023-08-31T04:06:52;100330.84;;;19.24;71.51
31044;BME280;17710;52.520;13.352;2023-08-31T04:09:18;100332.13;;;19.42;71.19
31044;BME280;17710;52.520;13.352;2023-08-31T04:11:45;100334.28;;;19.37;72.00
31044;BME280;17710;52.520;13.352;2023-08-31T04:14:12;100327.47;;;19.33;72.39
31044;BME280;17710;52.520;13.352;2023-08-31T04:16:39;100333.16;;;19.17;73.25
31044;BME280;17710;52.520;13.352;2023-08-31T04:19:05;100345.97;;;19.25;72.17
31044;BME280;17710;52.520;13.352;2023-08-31T04:21:32;100336.69;;;19.06;72.99
31044;BME280;17710;52.520;13.352;2023-08-31T04:23:58;100342.88;;;19.07;73.54
31044;BME280;17710;52.520;13.352;2023-08-31T04:26:26;100343.09;;;18.93;73.58
31044;BME280;17710;52.520;13.352;2023-08-31T04:28:53;100343.34;;;19.01;73.98
31044;BME280;17710;52.520;13.352;2023-08-31T04:31:19;100348.31;;;18.94;73.98
31044;BME280;17710;52.520;13.352;2023-08-31T04:33:47;100342.78;;;19.08;74.16
31044;BME280;17710;52.520;13.352;2023-08-31T04:36:14;100347.53;;;19.16;73.82
31044;BME280;17710;52.520;13.352;2023-08-31T04:38:40;100351.38;;;18.66;75.60
31044;BME280;17710;52.520;13.352;2023-08-31T04:41:07;100350.44;;;18.78;75.81
31044;BME280;17710;52.520;13.352;2023-08-31T04:43:36;100359.13;;;18.82;75.60
31044;BME280;17710;52.520;13.352;2023-08-31T04:46:03;100353.66;;;18.83;76.08
31044;BME280;17710;52.520;13.352;2023-08-31T04:48:29;100355.03;;;19.00;75.77
31044;BME280;17710;52.520;13.352;2023-08-31T04:50:57;100353.81;;;19.04;75.56
31044;BME280;17710;52.520;13.352;2023-08-31T04:53:24;100360.31;;;19.13;75.69
31044;BME280;17710;52.520;13.352;2023-08-31T04:55:50;100354.81;;;19.03;75.71
31044;BME280;17710;52.520;13.352;2023-08-31T04:58:17;100358.88;;;19.31;74.92
31044;BME280;17710;52.520;13.352;2023-08-31T05:00:43;100352.66;;;19.30;74.83
31044;BME280;17710;52.520;13.352;2023-08-31T05:03:10;100352.16;;;19.25;74.84
31044;BME280;17710;52.520;13.352;2023-08-31T05:05:36;100357.25;;;19.06;75.84
31044;BME280;17710;52.520;13.352;2023-08-31T05:08:05;100355.31;;;19.19;75.50
31044;BME280;17710;52.520;13.352;2023-08-31T05:10:32;100360.69;;;19.19;75.18
31044;BME280;17710;52.520;13.352;2023-08-31T05:12:59;100365.53;;;19.14;75.83
31044;BME280;17710;52.520;13.352;2023-08-31T05:15:25;100357.16;;;19.19;75.17
31044;BME280;17710;52.520;13.352;2023-08-31T05:17:52;100367.34;;;19.48;74.60
31044;BME280;17710;52.520;13.352;2023-08-31T05:20:19;100363.63;;;19.38;74.04
31044;BME280;17710;52.520;13.352;2023-08-31T05:22:46;100366.56;;;19.35;73.58
31044;BME280;17710;52.520;13.352;2023-08-31T05:25:14;100368.50;;;19.22;74.26
31044;BME280;17710;52.520;13.352;2023-08-31T05:27:41;100359.72;;;19.20;74.58
31044;BME280;17710;52.520;13.352;2023-08-31T05:30:07;100366.03;;;19.19;74.57
31044;BME280;17710;52.520;13.352;2023-08-31T05:32:34;100371.66;;;19.27;74.84
31044;BME280;17710;52.520;13.352;2023-08-31T05:35:00;100382.50;;;19.37;74.20
31044;BME280;17710;52.520;13.352;2023-08-31T05:37:31;100385.44;;;19.45;73.91
31044;BME280;17710;52.520;13.352;2023-08-31T05:39:59;100391.06;;;19.42;73.74
31044;BME280;17710;52.520;13.352;2023-08-31T05:42:27;100391.97;;;19.30;74.79
31044;BME280;17710;52.520;13.352;2023-08-31T05:44:54;100400.53;;;19.35;73.62
31044;BME280;17710;52.520;13.352;2023-08-31T05:47:20;100401.41;;;19.35;74.29
31044;BME280;17710;52.520;13.352;2023-08-31T05:49:50;100402.38;;;19.45;74.17
31044;BME280;17710;52.520;13.352;2023-08-31T05:52:17;100398.66;;;19.24;75.07
31044;BME280;17710;52.520;13.352;2023-08-31T05:54:43;100410.63;;;19.31;74.58
31044;BME280;17710;52.520;13.352;2023-08-31T05:57:10;100403.31;;;19.22;74.68
31044;BME280;17710;52.520;13.352;2023-08-31T05:59:37;100400.97;;;19.53;74.14
31044;BME280;17710;52.520;13.352;2023-08-31T06:02:04;100407.94;;;19.77;72.91
31044;BME280;17710;52.520;13.352;2023-08-31T06:04:33;100406.22;;;19.54;73.22
31044;BME280;17710;52.520;13.352;2023-08-31T06:07:00;100408.31;;;19.62;73.48
31044;BME280;17710;52.520;13.352;2023-08-31T06:09:26;100410.28;;;19.36;73.00
31044;BME280;17710;52.520;13.352;2023-08-31T06:11:53;100417.09;;;19.29;73.75
31044;BME280;17710;52.520;13.352;2023-08-31T06:14:19;100417.59;;;19.45;73.24
31044;BME280;17710;52.520;13.352;2023-08-31T06:16:47;100412.34;;;19.43;73.37
31044;BME280;17710;52.520;13.352;2023-08-31T06:19:14;100423.94;;;19.44;73.09
31044;BME280;17710;52.520;13.352;2023-08-31T06:21:41;100431.59;;;19.37;73.29
31044;BME280;17710;52.520;13.352;2023-08-31T06:24:07;100422.47;;;19.40;72.84
31044;BME280;17710;52.520;13.352;2023-08-31T06:26:35;100439.34;;;19.53;72.96
31044;BME280;17710;52.520;13.352;2023-08-31T06:29:02;100439.59;;;19.61;72.23
31044;BME280;17710;52.520;13.352;2023-08-31T06:31:29;100434.38;;;19.71;72.04
31044;BME280;17710;52.520;13.352;2023-08-31T06:33:57;100447.81;;;19.82;71.39
31044;BME280;17710;52.520;13.352;2023-08-31T06:36:24;100440.25;;;19.87;71.13
31044;BME280;17710;52.520;13.352;2023-08-31T06:38:50;100444.16;;;19.94;70.58
31044;BME280;17710;52.520;13.352;2023-08-31T06:41:16;100445.56;;;19.65;71.15
31044;BME280;17710;52.520;13.352;2023-08-31T06:43:43;100446.53;;;19.53;71.79
31044;BME280;17710;52.520;13.352;2023-08-31T06:46:11;100450.44;;;19.60;71.87
31044;BME280;17710;52.520;13.352;2023-08-31T06:48:37;100444.63;;;19.88;71.15
31044;BME280;17710;52.520;13.352;2023-08-31T06:51:05;100445.59;;;19.98;69.91
31044;BME280;17710;52.520;13.352;2023-08-31T06:53:31;100447.31;;;19.99;69.62
31044;BME280;17710;52.520;13.352;2023-08-31T06:55:58;100449.50;;;19.94;69.76
31044;BME280;17710;52.520;13.352;2023-08-31T06:58:24;100449.47;;;19.83;69.01
31044;BME280;17710;52.520;13.352;2023-08-31T07:00:51;100460.47;;;19.69;69.18
31044;BME280;17710;52.520;13.352;2023-08-31T07:03:17;100466.31;;;19.74;69.89
31044;BME280;17710;52.520;13.352;2023-08-31T07:05:43;100468.41;;;19.93;69.37
31044;BME280;17710;52.520;13.352;2023-08-31T07:08:11;100459.97;;;19.97;68.92
31044;BME280;17710;52.520;13.352;2023-08-31T07:10:38;100466.31;;;19.74;69.37
31044;BME280;17710;52.520;13.352;2023-08-31T07:13:05;100461.91;;;19.62;69.82
31044;BME280;17710;52.520;13.352;2023-08-31T07:15:31;100457.31;;;19.86;68.35
31044;BME280;17710;52.520;13.352;2023-08-31T07:17:58;100472.97;;;19.57;69.42
31044;BME280;17710;52.520;13.352;2023-08-31T07:20:24;100473.81;;;19.58;68.89
31044;BME280;17710;52.520;13.352;2023-08-31T07:22:51;100471.56;;;19.75;68.09
31044;BME280;17710;52.520;13.352;2023-08-31T07:25:19;100472.63;;;19.73;68.38
31044;BME280;17710;52.520;13.352;2023-08-31T07:27:45;100479.13;;;19.81;66.58
31044;BME280;17710;52.520;13.352;2023-08-31T07:30:12;100471.88;;;19.71;66.69
31044;BME280;17710;52.520;13.352;2023-08-31T07:32:38;100481.53;;;19.96;66.25
31044;BME280;17710;52.520;13.352;2023-08-31T07:35:05;100492.34;;;19.61;66.37
31044;BME280;17710;52.520;13.352;2023-08-31T07:37:32;100489.69;;;19.83;65.73
31044;BME280;17710;52.520;13.352;2023-08-31T07:39:58;100504.56;;;19.76;65.46
31044;BME280;17710;52.520;13.352;2023-08-31T07:42:26;100498.38;;;19.98;64.42
31044;BME280;17710;52.520;13.352;2023-08-31T07:44:53;100499.75;;;20.25;63.49
31044;BME280;17710;52.520;13.352;2023-08-31T07:47:19;100506.97;;;20.47;62.61
31044;BME280;17710;52.520;13.352;2023-08-31T07:49:45;100504.16;;;20.60;63.25
31044;BME280;17710;52.520;13.352;2023-08-31T07:52:12;100507.56;;;20.62;62.47
31044;BME280;17710;52.520;13.352;2023-08-31T07:54:38;100508.28;;;20.30;63.65
31044;BME280;17710;52.520;13.352;2023-08-31T07:57:04;100515.97;;;20.24;64.48
31044;BME280;17710;52.520;13.352;2023-08-31T07:59:32;100522.44;;;19.64;64.61
31044;BME280;17710;52.520;13.352;2023-08-31T08:01:59;100524.66;;;19.70;64.79
31044;BME280;17710;52.520;13.352;2023-08-31T08:04:25;100528.94;;;19.73;63.44
31044;BME280;17710;52.520;13.352;2023-08-31T08:06:52;100536.22;;;19.71;63.32
31044;BME280;17710;52.520;13.352;2023-08-31T08:09:19;100531.94;;;20.25;60.69
31044;BME280;17710;52.520;13.352;2023-08-31T08:11:45;100532.94;;;20.58;59.60
31044;BME280;17710;52.520;13.352;2023-08-31T08:14:12;100535.50;;;21.14;57.68
31044;BME280;17710;52.520;13.352;2023-08-31T08:16:40;100535.13;;;21.61;56.15
31044;BME280;17710;52.520;13.352;2023-08-31T08:19:06;100542.41;;;20.95;57.88
31044;BME280;17710;52.520;13.352;2023-08-31T08:21:33;100550.75;;;21.35;56.63
31044;BME280;17710;52.520;13.352;2023-08-31T08:24:00;100537.66;;;20.88;56.58
31044;BME280;17710;52.520;13.352;2023-08-31T08:26:26;100537.34;;;21.24;55.89
31044;BME280;17710;52.520;13.352;2023-08-31T08:28:53;100530.06;;;21.04;56.41
31044;BME280;17710;52.520;13.352;2023-08-31T08:31:19;100522.19;;;21.55;55.86
31044;BME280;17710;52.520;13.352;2023-08-31T08:33:47;100533.88;;;21.86;54.21
31044;BME280;17710;52.520;13.352;2023-08-31T08:36:13;100532.59;;;22.01;53.45
31044;BME280;17710;52.520;13.352;2023-08-31T08:38:41;100528.97;;;22.42;52.34
31044;BME280;17710;52.520;13.352;2023-08-31T08:41:07;100523.63;;;22.52;51.80
31044;BME280;17710;52.520;13.352;2023-08-31T08:43:34;100529.53;;;22.36;50.66
31044;BME280;17710;52.520;13.352;2023-08-31T08:46:04;100526.44;;;22.10;51.63
31044;BME280;17710;52.520;13.352;2023-08-31T08:48:32;100531.59;;;22.23;51.48
31044;BME280;17710;52.520;13.352;2023-08-31T08:51:01;100524.97;;;22.06;50.86
31044;BME280;17710;52.520;13.352;2023-08-31T08:53:28;100531.25;;;21.75;51.64
31044;BME280;17710;52.520;13.352;2023-08-31T08:55:55;100541.72;;;21.36;52.01
31044;BME280;17710;52.520;13.352;2023-08-31T08:58:24;100538.22;;;21.25;53.12
31044;BME280;17710;52.520;13.352;2023-08-31T09:00:51;100525.81;;;21.65;52.72
31044;BME280;17710;52.520;13.352;2023-08-31T09:03:20;100525.22;;;21.62;51.54
31044;BME280;17710;52.520;13.352;2023-08-31T09:05:47;100534.72;;;21.98;51.46
31044;BME280;17710;52.520;13.352;2023-08-31T09:08:14;100524.41;;;22.03;51.10
31044;BME280;17710;52.520;13.352;2023-08-31T09:10:42;100528.25;;;22.40;50.50
31044;BME280;17710;52.520;13.352;2023-08-31T09:13:10;100526.19;;;22.84;49.56
31044;BME280;17710;52.520;13.352;2023-08-31T09:15:43;100528.09;;;23.41;47.37
31044;BME280;17710;52.520;13.352;2023-08-31T09:18:16;100523.66;;;23.11;46.09
31044;BME280;17710;52.520;13.352;2023-08-31T09:20:48;100533.25;;;22.45;49.11
31044;BME280;17710;52.520;13.352;2023-08-31T09:23:17;100525.81;;;22.07;49.14
31044;BME280;17710;52.520;13.352;2023-08-31T09:25:44;100530.94;;;21.89;49.48
31044;BME280;17710;52.520;13.352;2023-08-31T09:28:12;100538.38;;;22.17;49.01
31044;BME280;17710;52.520;13.352;2023-08-31T09:30:39;100539.84;;;21.90;50.10
31044;BME280;17710;52.520;13.352;2023-08-31T09:33:07;100532.56;;;21.80;50.65
31044;BME280;17710;52.520;13.352;2023-08-31T09:35:34;100544.16;;;21.60;51.56
31044;BME280;17710;52.520;13.352;2023-08-31T09:38:00;100543.19;;;21.61;51.35
31044;BME280;17710;52.520;13.352;2023-08-31T09:40:29;100535.31;;;21.48;51.12
31044;BME280;17710;52.520;13.352;2023-08-31T09:42:55;100529.75;;;21.61;50.29
31044;BME280;17710;52.520;13.352;2023-08-31T09:45:26;100526.69;;;22.07;49.42
31044;BME280;17710;52.520;13.352;2023-08-31T09:47:55;100526.22;;;22.63;47.51
31044;BME280;17710;52.520;13.352;2023-08-31T09:50:23;100528.28;;;23.49;45.69
31044;BME280;17710;52.520;13.352;2023-08-31T09:52:53;100527.06;;;24.19;44.21
31044;BME280;17710;52.520;13.352;2023-08-31T09:55:21;100510.81;;;24.29;42.86
31044;BME280;17710;52.520;13.352;2023-08-31T09:57:52;100508.25;;;24.17;42.73
31044;BME280;17710;52.520;13.352;2023-08-31T10:00:21;100507.53;;;23.69;40.89
31044;BME280;17710;52.520;13.352;2023-08-31T10:02:48;100510.47;;;23.85;40.37
31044;BME280;17710;52.520;13.352;2023-08-31T10:05:15;100520.09;;;23.97;40.49
31044;BME280;17710;52.520;13.352;2023-08-31T10:07:42;100516.31;;;23.71;40.94
31044;BME280;17710;52.520;13.352;2023-08-31T10:10:10;100508.75;;;22.88;42.98
31044;BME280;17710;52.520;13.352;2023-08-31T10:12:37;100513.25;;;22.78;42.43
31044;BME280;17710;52.520;13.352;2023-08-31T10:15:07;100520.63;;;22.76;42.81
31044;BME280;17710;52.520;13.352;2023-08-31T10:17:33;100521.03;;;23.50;41.69
31044;BME280;17710;52.520;13.352;2023-08-31T10:20:00;100525.41;;;23.51;40.72
31044;BME280;17710;52.520;13.352;2023-08-31T10:22:28;100519.88;;;23.23;41.13
31044;BME280;17710;52.520;13.352;2023-08-31T10:24:58;100518.16;;;23.03;41.28
31044;BME280;17710;52.520;13.352;2023-08-31T10:27:25;100531.88;;;23.00;41.90
31044;BME280;17710;52.520;13.352;2023-08-31T10:29:51;100536.16;;;22.72;43.19
31044;BME280;17710;52.520;13.352;2023-08-31T10:32:19;100554.06;;;21.80;45.01
31044;BME280;17710;52.520;13.352;2023-08-31T10:35:05;100569.13;;;21.08;49.69
31044;BME280;17710;52.520;13.352;2023-08-31T10:37:32;100568.41;;;21.17;49.76
31044;BME280;17710;52.520;13.352;2023-08-31T10:40:07;100563.28;;;21.03;51.83
31044;BME280;17710;52.520;13.352;2023-08-31T10:42:41;100568.06;;;20.77;54.15
31044;BME280;17710;52.520;13.352;2023-08-31T10:45:08;100561.38;;;20.49;54.44
31044;BME280;17710;52.520;13.352;2023-08-31T10:47:40;100560.88;;;20.78;53.98
31044;BME280;17710;52.520;13.352;2023-08-31T10:50:18;100560.97;;;20.98;53.41
31044;BME280;17710;52.520;13.352;2023-08-31T10:52:45;100572.53;;;21.10;54.93
31044;BME280;17710;52.520;13.352;2023-08-31T10:55:12;100567.22;;;21.42;55.71
31044;BME280;17710;52.520;13.352;2023-08-31T10:57:40;100567.03;;;21.55;55.30
31044;BME280;17710;52.520;13.352;2023-08-31T11:00:07;100561.69;;;21.75;54.63
31044;BME280;17710;52.520;13.352;2023-08-31T11:02:36;100565.50;;;21.94;54.59
31044;BME280;17710;52.520;13.352;2023-08-31T11:05:08;100567.59;;;21.90;52.39
31044;BME280;17710;52.520;13.352;2023-08-31T11:07:36;100561.00;;;22.15;53.14
31044;BME280;17710;52.520;13.352;2023-08-31T11:10:07;100557.94;;;21.99;53.46
31044;BME280;17710;52.520;13.352;2023-08-31T11:12:34;100560.78;;;22.27;54.27
31044;BME280;17710;52.520;13.352;2023-08-31T11:15:01;100557.38;;;22.25;53.96
31044;BME280;17710;52.520;13.352;2023-08-31T11:17:29;100553.09;;;22.44;52.23
31044;BME280;17710;52.520;13.352;2023-08-31T11:19:56;100544.50;;;22.59;52.76
31044;BME280;17710;52.520;13.352;2023-08-31T11:22:23;100545.75;;;22.55;51.67
31044;BME280;17710;52.520;13.352;2023-08-31T11:24:50;100543.88;;;22.46;49.66
31044;BME280;17710;52.520;13.352;2023-08-31T11:27:18;100547.19;;;22.90;50.03
31044;BME280;17710;52.520;13.352;2023-08-31T11:29:45;100546.63;;;22.96;49.52
31044;BME280;17710;52.520;13.352;2023-08-31T11:32:11;100535.47;;;23.10;50.56
31044;BME280;17710;52.520;13.352;2023-08-31T11:34:40;100534.03;;;23.06;49.30
31044;BME280;17710;52.520;13.352;2023-08-31T11:37:07;100542.19;;;22.76;50.00
31044;BME280;17710;52.520;13.352;2023-08-31T11:39:35;100535.97;;;22.54;50.77
31044;BME280;17710;52.520;13.352;2023-08-31T11:42:02;100538.78;;;22.53;50.61
31044;BME280;17710;52.520;13.352;2023-08-31T11:44:28;100537.31;;;22.39;51.27
31044;BME280;17710;52.520;13.352;2023-08-31T11:46:55;100523.59;;;22.12;50.04
31044;BME280;17710;52.520;13.352;2023-08-31T11:49:21;100538.00;;;21.69;51.15
31044;BME280;17710;52.520;13.352;2023-08-31T11:51:49;100544.34;;;21.47;52.46
31044;BME280;17710;52.520;13.352;2023-08-31T11:54:16;100545.25;;;21.37;56.37
31044;BME280;17710;52.520;13.352;2023-08-31T11:56:45;100540.41;;;21.08;56.47
31044;BME280;17710;52.520;13.352;2023-08-31T11:59:15;100518.34;;;21.69;54.93
31044;BME280;17710;52.520;13.352;2023-08-31T12:01:42;100518.78;;;21.95;54.56
31044;BME280;17710;52.520;13.352;2023-08-31T12:04:10;100532.13;;;22.17;56.26
31044;BME280;17710;52.520;13.352;2023-08-31T12:06:37;100532.25;;;22.76;55.99
31044;BME280;17710;52.520;13.352;2023-08-31T12:09:05;100539.72;;;23.22;55.17
31044;BME280;17710;52.520;13.352;2023-08-31T12:11:31;100540.88;;;23.29;55.77
31044;BME280;17710;52.520;13.352;2023-08-31T12:14:00;100537.19;;;23.40;52.95
31044;BME280;17710;52.520;13.352;2023-08-31T12:16:32;100539.31;;;23.65;52.88
31044;BME280;17710;52.520;13.352;2023-08-31T12:18:59;100531.06;;;23.76;52.27
31044;BME280;17710;52.520;13.352;2023-08-31T12:21:25;100534.19;;;23.91;52.73
31044;BME280;17710;52.520;13.352;2023-08-31T12:23:52;100538.59;;;23.92;52.85
31044;BME280;17710;52.520;13.352;2023-08-31T12:26:18;100527.63;;;24.03;53.45
31044;BME280;17710;52.520;13.352;2023-08-31T12:28:44;100533.31;;;23.91;50.24
31044;BME280;17710;52.520;13.352;2023-08-31T12:31:12;100544.84;;;23.44;50.63
31044;BME280;17710;52.520;13.352;2023-08-31T12:33:38;100543.78;;;22.88;51.94
31044;BME280;17710;52.520;13.352;2023-08-31T12:36:05;100540.09;;;22.89;52.13
31044;BME280;17710;52.520;13.352;2023-08-31T12:38:31;100540.66;;;22.92;52.15
31044;BME280;17710;52.520;13.352;2023-08-31T12:40:58;100547.19;;;22.90;53.18